createdAt,value
2022-12-09T00:00:07.570Z,2.72
2022-12-09T00:02:34.708Z,2.28
2022-12-09T00:05:02.070Z,2.50
2022-12-09T00:07:29.031Z,2.45
2022-12-09T00:09:55.785Z,3.20
2022-12-09T00:12:22.449Z,3.28
2022-12-09T00:14:49.215Z,3.25
2022-12-09T00:17:16.093Z,2.40
2022-12-09T00:19:42.829Z,2.75
2022-12-09T00:22:09.704Z,2.92
2022-12-09T00:24:36.380Z,2.63
2022-12-09T00:27:03.296Z,3.13
2022-12-09T00:29:30.221Z,2.60
2022-12-09T00:31:56.975Z,2.95
2022-12-09T00:34:24.213Z,3.08
2022-12-09T00:36:51.008Z,3.17
2022-12-09T00:39:18.019Z,2.90
2022-12-09T00:41:44.717Z,2.88
2022-12-09T00:44:11.913Z,2.97
2022-12-09T00:46:38.568Z,2.47
2022-12-09T00:49:05.539Z,2.72
2022-12-09T00:51:32.477Z,2.80
2022-12-09T00:53:59.244Z,2.70
2022-12-09T00:56:31.100Z,2.67
2022-12-09T00:58:59.885Z,3.03
2022-12-09T01:01:27.690Z,3.20
2022-12-09T01:03:54.614Z,3.03
2022-12-09T01:06:24.368Z,3.28
2022-12-09T01:08:52.146Z,3.38
2022-12-09T01:11:22.525Z,3.10
2022-12-09T01:13:50.059Z,2.97
2022-12-09T01:16:23.073Z,3.22
2022-12-09T01:18:50.764Z,3.13
2022-12-09T01:21:18.262Z,3.30
2022-12-09T01:23:45.363Z,3.03
2022-12-09T01:26:12.309Z,3.58
2022-12-09T01:28:40.183Z,3.67
2022-12-09T01:31:07.075Z,2.95
2022-12-09T01:33:34.173Z,3.58
2022-12-09T01:36:03.622Z,3.60
2022-12-09T01:38:30.644Z,3.13
2022-12-09T01:40:57.238Z,3.05
2022-12-09T01:43:23.837Z,3.25
2022-12-09T01:45:50.904Z,3.58
2022-12-09T01:48:20.930Z,3.45
2022-12-09T01:50:59.576Z,3.92
2022-12-09T01:53:36.146Z,3.40
2022-12-09T01:56:07.670Z,2.95
2022-12-09T01:58:35.234Z,2.97
2022-12-09T02:01:02.138Z,3.03
2022-12-09T02:03:28.937Z,2.85
2022-12-09T02:05:56.167Z,2.80
2022-12-09T02:08:23.119Z,2.67
2022-12-09T02:11:08.451Z,2.92
2022-12-09T02:16:23.635Z,3.28
2022-12-09T02:19:12.072Z,2.55
2022-12-09T02:21:53.891Z,3.22
2022-12-09T02:24:41.350Z,2.80
2022-12-09T02:27:15.283Z,2.40
2022-12-09T02:30:00.201Z,2.60
2022-12-09T02:33:04.552Z,2.75
2022-12-09T02:36:13.553Z,2.42
2022-12-09T02:38:42.502Z,2.55
2022-12-09T02:41:26.323Z,1.85
2022-12-09T02:44:05.664Z,2.50
2022-12-09T02:46:36.288Z,3.72
2022-12-09T02:49:04.230Z,2.75
2022-12-09T02:51:35.538Z,2.72
2022-12-09T02:54:09.370Z,2.75
2022-12-09T02:56:37.314Z,2.30
2022-12-09T02:59:04.388Z,2.47
2022-12-09T03:01:52.408Z,1.83
2022-12-09T03:04:22.768Z,2.15
2022-12-09T03:06:55.432Z,1.48
2022-12-09T03:09:35.027Z,1.75
2022-12-09T03:12:07.223Z,1.75
2022-12-09T03:14:45.525Z,1.67
2022-12-09T03:17:20.193Z,1.88
2022-12-09T03:20:02.916Z,1.88
2022-12-09T03:22:34.359Z,1.40
2022-12-09T03:25:10.392Z,1.50
2022-12-09T03:27:42.914Z,1.58
2022-12-09T03:30:11.490Z,1.45
2022-12-09T03:32:41.287Z,1.80
2022-12-09T03:35:29.853Z,1.83
2022-12-09T03:37:57.734Z,1.73
2022-12-09T03:40:28.364Z,1.50
2022-12-09T03:43:00.775Z,1.45
2022-12-09T03:45:28.326Z,1.70
2022-12-09T03:47:56.293Z,1.48
2022-12-09T03:50:27.236Z,1.67
2022-12-09T03:53:19.866Z,1.45
2022-12-09T03:55:54.354Z,1.75
2022-12-09T03:58:21.409Z,1.20
2022-12-09T04:00:49.315Z,1.38
2022-12-09T04:03:18.812Z,1.50
2022-12-09T04:05:45.696Z,1.42
2022-12-09T04:08:12.372Z,0.93
2022-12-09T04:10:39.515Z,1.35
2022-12-09T04:13:06.152Z,1.10
2022-12-09T04:15:32.950Z,1.10
2022-12-09T04:17:59.804Z,1.17
2022-12-09T04:20:26.846Z,1.65
2022-12-09T04:22:53.835Z,1.10
2022-12-09T04:25:20.416Z,1.23
2022-12-09T04:27:46.954Z,1.42
2022-12-09T04:30:14.039Z,0.80
2022-12-09T04:32:41.199Z,1.02
2022-12-09T04:35:08.355Z,1.67
2022-12-09T04:37:37.496Z,1.40
2022-12-09T04:40:08.233Z,1.40
2022-12-09T04:42:35.471Z,1.40
2022-12-09T04:45:02.361Z,1.42
2022-12-09T04:47:29.505Z,1.15
2022-12-09T04:49:56.413Z,1.23
2022-12-09T04:52:23.456Z,1.10
2022-12-09T04:54:51.061Z,1.00
2022-12-09T04:57:18.822Z,1.23
2022-12-09T04:59:45.813Z,1.17
2022-12-09T05:02:12.801Z,1.35
2022-12-09T05:04:40.228Z,1.02
2022-12-09T05:07:07.335Z,1.20
2022-12-09T05:09:34.547Z,1.20
2022-12-09T05:12:01.345Z,0.85
2022-12-09T05:14:28.635Z,1.25
2022-12-09T05:16:55.425Z,1.40
2022-12-09T05:19:22.679Z,1.10
2022-12-09T05:21:49.721Z,1.45
2022-12-09T05:24:16.703Z,1.30
2022-12-09T05:26:43.487Z,1.55
2022-12-09T05:29:10.472Z,1.45
2022-12-09T05:31:37.730Z,1.33
2022-12-09T05:34:04.844Z,1.40
2022-12-09T05:36:32.336Z,1.45
2022-12-09T05:38:59.210Z,1.27
2022-12-09T05:41:26.200Z,1.30
2022-12-09T05:43:53.362Z,1.70
2022-12-09T05:46:21.439Z,2.45
2022-12-09T05:48:48.492Z,2.08
2022-12-09T05:51:26.564Z,2.40
2022-12-09T05:53:54.187Z,2.15
2022-12-09T05:56:23.406Z,2.35
2022-12-09T05:58:50.990Z,2.00
2022-12-09T06:01:18.783Z,2.22
2022-12-09T06:03:50.116Z,1.73
2022-12-09T06:06:18.960Z,2.33
2022-12-09T06:08:46.536Z,2.63
2022-12-09T06:11:19.775Z,1.70
2022-12-09T06:13:48.437Z,1.95
2022-12-09T06:16:20.001Z,2.00
2022-12-09T06:18:47.872Z,2.00
2022-12-09T06:21:17.020Z,2.35
2022-12-09T06:23:44.299Z,2.33
2022-12-09T06:26:17.171Z,1.80
2022-12-09T06:28:44.123Z,1.80
2022-12-09T06:31:10.979Z,2.22
2022-12-09T06:33:54.167Z,2.92
2022-12-09T06:36:22.920Z,1.90
2022-12-09T06:38:50.148Z,2.22
2022-12-09T06:41:17.164Z,1.77
2022-12-09T06:43:44.018Z,2.08
2022-12-09T06:46:16.682Z,2.00
2022-12-09T06:48:43.968Z,1.90
2022-12-09T06:51:11.283Z,1.77
2022-12-09T06:53:38.483Z,2.47
2022-12-09T06:56:11.737Z,2.47
2022-12-09T06:58:40.469Z,2.78
2022-12-09T07:01:13.811Z,2.45
2022-12-09T07:03:49.272Z,2.25
2022-12-09T07:06:38.327Z,2.20
2022-12-09T07:09:14.911Z,2.13
2022-12-09T07:11:48.228Z,2.65
2022-12-09T07:14:16.872Z,2.65
2022-12-09T07:16:44.542Z,3.05
2022-12-09T07:19:20.628Z,2.92
2022-12-09T07:21:49.447Z,2.33
2022-12-09T07:24:18.472Z,2.30
2022-12-09T07:26:45.816Z,2.35
2022-12-09T07:29:12.853Z,2.35
2022-12-09T07:31:39.781Z,2.70
2022-12-09T07:34:06.820Z,2.28
2022-12-09T07:36:35.860Z,2.33
2022-12-09T07:39:10.293Z,2.25
2022-12-09T07:41:37.427Z,2.35
2022-12-09T07:44:05.000Z,2.40
2022-12-09T07:46:32.345Z,2.70
2022-12-09T07:49:01.213Z,2.58
2022-12-09T07:51:29.546Z,2.22
2022-12-09T07:53:57.140Z,3.20
2022-12-09T07:56:24.883Z,2.50
2022-12-09T07:58:53.705Z,2.45
2022-12-09T08:01:26.955Z,2.58
2022-12-09T08:03:54.767Z,2.50
2022-12-09T08:06:25.702Z,2.83
2022-12-09T08:08:53.867Z,2.75
2022-12-09T08:11:26.748Z,2.72
2022-12-09T08:13:57.053Z,2.90
2022-12-09T08:16:24.402Z,3.92
2022-12-09T08:18:52.753Z,2.95
2022-12-09T08:21:25.591Z,3.15
2022-12-09T08:23:53.154Z,2.60
2022-12-09T08:26:22.373Z,3.53
2022-12-09T08:28:49.553Z,3.15
2022-12-09T08:31:19.666Z,3.47
2022-12-09T08:33:46.782Z,3.10
2022-12-09T08:36:16.624Z,3.15
2022-12-09T08:38:44.205Z,3.17
2022-12-09T08:41:17.555Z,3.17
2022-12-09T08:43:45.163Z,3.40
2022-12-09T08:46:13.637Z,3.58
2022-12-09T08:48:42.482Z,3.28
2022-12-09T08:51:11.397Z,3.22
2022-12-09T08:53:42.203Z,3.15
2022-12-09T08:56:13.786Z,3.47
2022-12-09T08:58:41.547Z,3.60
2022-12-09T09:01:15.664Z,3.45
2022-12-09T09:03:43.129Z,3.70
2022-12-09T09:06:11.458Z,3.58
2022-12-09T09:08:39.371Z,3.60
2022-12-09T09:11:16.052Z,3.90
2022-12-09T09:13:45.113Z,4.03
2022-12-09T09:16:15.985Z,3.58
2022-12-09T09:18:43.982Z,4.78
2022-12-09T09:21:13.951Z,4.07
2022-12-09T09:23:41.434Z,3.70
2022-12-09T09:26:20.087Z,4.20
2022-12-09T09:28:48.047Z,3.67
2022-12-09T09:31:17.834Z,3.45
2022-12-09T09:33:46.150Z,4.00
2022-12-09T09:36:21.859Z,5.15
2022-12-09T09:38:50.005Z,3.33
2022-12-09T09:41:35.576Z,3.58
2022-12-09T09:44:03.742Z,4.10
2022-12-09T09:46:39.841Z,3.53
2022-12-09T09:49:11.413Z,3.90
2022-12-09T09:51:38.574Z,3.92
2022-12-09T09:54:09.019Z,4.13
2022-12-09T09:56:41.138Z,3.28
2022-12-09T09:59:34.205Z,3.78
2022-12-09T10:02:16.435Z,3.53
2022-12-09T10:04:52.830Z,3.38
2022-12-09T10:07:38.590Z,3.47
2022-12-09T10:10:20.811Z,3.03
2022-12-09T10:13:12.316Z,3.13
2022-12-09T10:16:14.437Z,3.40
2022-12-09T10:19:05.953Z,2.90
2022-12-09T10:21:39.631Z,3.15
2022-12-09T10:24:21.172Z,3.53
2022-12-09T10:27:12.642Z,3.38
2022-12-09T10:30:02.751Z,3.00
2022-12-09T10:32:32.513Z,3.45
2022-12-09T10:35:00.190Z,3.20
2022-12-09T10:37:34.017Z,2.90
2022-12-09T10:40:10.567Z,2.60
2022-12-09T10:43:04.890Z,2.85
2022-12-09T10:46:00.110Z,2.30
2022-12-09T10:48:34.447Z,3.13
2022-12-09T10:51:05.941Z,3.00
2022-12-09T10:53:35.270Z,2.92
2022-12-09T10:56:04.138Z,3.05
2022-12-09T10:58:32.001Z,3.05
2022-12-09T11:01:12.604Z,3.25
2022-12-09T11:03:51.923Z,3.33
2022-12-09T11:06:31.318Z,3.75
2022-12-09T11:09:01.036Z,3.42
2022-12-09T11:11:43.724Z,3.78
2022-12-09T11:14:30.602Z,3.00
2022-12-09T11:17:18.707Z,3.03
2022-12-09T11:19:55.221Z,3.53
2022-12-09T11:22:43.323Z,3.05
2022-12-09T11:25:13.480Z,2.78
2022-12-09T11:27:48.091Z,2.53
2022-12-09T11:30:36.491Z,3.28
2022-12-09T11:33:15.386Z,2.60
2022-12-09T11:38:30.678Z,2.65
2022-12-09T11:41:09.453Z,2.80
2022-12-09T11:43:42.780Z,3.20
2022-12-09T11:46:12.176Z,3.72
2022-12-09T11:48:43.841Z,3.42
2022-12-09T11:51:40.952Z,2.45
2022-12-09T11:54:18.777Z,2.65
2022-12-09T11:56:45.620Z,3.78
2022-12-09T11:59:17.923Z,2.92
2022-12-09T12:01:52.729Z,3.53
2022-12-09T12:04:32.658Z,4.03
2022-12-09T12:07:05.358Z,3.28
2022-12-09T12:09:34.717Z,3.28
2022-12-09T12:12:24.417Z,3.05
2022-12-09T12:14:51.037Z,2.70
2022-12-09T12:17:24.712Z,2.70
2022-12-09T12:19:53.396Z,2.13
2022-12-09T12:22:55.009Z,2.75
2022-12-09T12:25:51.811Z,2.95
2022-12-09T12:28:37.504Z,2.75
2022-12-09T12:31:37.988Z,2.78
2022-12-09T12:34:25.993Z,2.45
2022-12-09T12:37:00.611Z,2.90
2022-12-09T12:39:30.103Z,2.40
2022-12-09T12:42:28.516Z,2.53
2022-12-09T12:45:25.857Z,1.88
2022-12-09T12:48:19.358Z,2.38
2022-12-09T12:50:51.856Z,2.88
2022-12-09T12:56:14.276Z,2.42
2022-12-09T12:58:54.906Z,2.00
2022-12-09T13:01:43.322Z,2.40
2022-12-09T13:04:29.237Z,1.85
2022-12-09T13:07:20.099Z,1.92
2022-12-09T13:10:14.465Z,2.25
2022-12-09T13:12:56.662Z,1.50
2022-12-09T13:15:32.282Z,1.90
2022-12-09T13:18:22.195Z,3.10
2022-12-09T13:20:54.150Z,2.03
2022-12-09T13:23:54.853Z,2.28
2022-12-09T13:26:33.473Z,1.77
2022-12-09T13:29:31.115Z,1.92
2022-12-09T13:34:50.011Z,2.42
2022-12-09T13:37:45.781Z,2.90
2022-12-09T13:40:21.529Z,1.77
2022-12-09T13:43:01.381Z,1.42
2022-12-09T13:45:43.019Z,1.63
2022-12-09T13:48:16.999Z,1.98
2022-12-09T13:50:51.621Z,1.88
2022-12-09T13:53:21.174Z,1.63
2022-12-09T13:56:05.192Z,1.60
2022-12-09T13:58:59.471Z,1.58
2022-12-09T14:01:56.777Z,1.98
2022-12-09T14:04:27.475Z,3.00
2022-12-09T14:07:14.854Z,2.55
2022-12-09T14:09:44.421Z,2.40
2022-12-09T14:12:27.162Z,1.50
2022-12-09T14:15:26.229Z,1.90
2022-12-09T14:18:02.824Z,2.08
2022-12-09T14:20:39.777Z,2.05
2022-12-09T14:23:09.819Z,1.65
2022-12-09T14:25:36.372Z,1.83
2022-12-09T14:28:12.256Z,3.08
2022-12-09T14:31:08.164Z,1.70
2022-12-09T14:33:39.044Z,1.85
2022-12-09T14:36:14.966Z,3.08
2022-12-09T14:39:15.697Z,1.88
2022-12-09T14:41:39.939Z,2.33
2022-12-09T14:44:34.224Z,1.88
2022-12-09T14:47:18.619Z,2.38
2022-12-09T14:49:49.212Z,1.75
2022-12-09T14:52:29.045Z,1.80
2022-12-09T14:54:58.647Z,2.97
2022-12-09T14:57:47.167Z,2.70
2022-12-09T15:00:34.401Z,2.10
2022-12-09T15:03:31.359Z,2.03
2022-12-09T15:06:02.290Z,1.83
2022-12-09T15:08:37.921Z,1.85
2022-12-09T15:11:22.304Z,2.10
2022-12-09T15:13:51.941Z,1.98
2022-12-09T15:16:21.414Z,2.13
2022-12-09T15:18:51.259Z,1.90
2022-12-09T15:21:36.259Z,2.38
2022-12-09T15:24:03.457Z,2.25
2022-12-09T15:26:32.863Z,2.25
2022-12-09T15:29:01.352Z,1.90
2022-12-09T15:31:30.656Z,1.80
2022-12-09T15:34:00.154Z,2.22
2022-12-09T15:36:51.775Z,2.25
2022-12-09T15:39:25.746Z,2.38
2022-12-09T15:42:07.386Z,2.92
2022-12-09T15:44:38.191Z,2.03
2022-12-09T15:47:10.430Z,2.67
2022-12-09T15:52:07.856Z,2.20
2022-12-09T15:54:39.458Z,2.38
2022-12-09T15:57:10.867Z,2.00
2022-12-09T15:59:43.741Z,2.15
2022-12-09T16:02:15.322Z,2.03
2022-12-09T16:04:46.826Z,2.45
2022-12-09T16:07:16.141Z,2.53
2022-12-09T16:10:09.436Z,2.13
2022-12-09T16:12:37.300Z,2.28
2022-12-09T16:15:10.245Z,2.15
2022-12-09T16:17:51.411Z,2.55
2022-12-09T16:20:45.700Z,2.00
2022-12-09T16:23:22.186Z,2.22
2022-12-09T16:25:50.101Z,2.55
2022-12-09T16:28:22.781Z,2.08
2022-12-09T16:30:51.023Z,2.08
2022-12-09T16:33:24.468Z,2.35
2022-12-09T16:36:07.035Z,2.33
2022-12-09T16:38:35.563Z,2.53
2022-12-09T16:41:05.829Z,2.55
2022-12-09T16:43:33.894Z,2.08
2022-12-09T16:46:14.536Z,2.10
2022-12-09T16:48:42.565Z,3.00
2022-12-09T16:51:20.102Z,3.55
2022-12-09T16:53:50.667Z,2.60
2022-12-09T16:56:23.731Z,2.90
2022-12-09T16:58:51.206Z,2.65
2022-12-09T17:01:24.576Z,2.63
2022-12-09T17:04:14.221Z,2.60
2022-12-09T17:06:41.132Z,2.85
2022-12-09T17:09:07.684Z,3.17
2022-12-09T17:11:34.919Z,2.75
2022-12-09T17:14:01.543Z,3.20
2022-12-09T17:16:28.368Z,3.05
2022-12-09T17:18:55.103Z,2.67
2022-12-09T17:21:21.743Z,2.97
2022-12-09T17:23:48.539Z,3.08
2022-12-09T17:26:18.346Z,2.92
2022-12-09T17:28:45.743Z,3.22
2022-12-09T17:31:19.524Z,3.50
2022-12-09T17:33:47.037Z,3.40
2022-12-09T17:36:14.875Z,3.65
2022-12-09T17:38:42.444Z,3.83
2022-12-09T17:41:11.849Z,3.30
2022-12-09T17:43:38.796Z,3.42
2022-12-09T17:46:06.444Z,3.70
2022-12-09T17:48:35.142Z,3.55
2022-12-09T17:51:07.118Z,3.72
2022-12-09T17:53:36.422Z,4.00
2022-12-09T17:56:11.731Z,3.83
2022-12-09T17:58:38.891Z,4.07
2022-12-09T18:01:13.407Z,4.03
2022-12-09T18:03:55.691Z,4.22
2022-12-09T18:06:23.839Z,5.03
2022-12-09T18:08:50.482Z,5.10
2022-12-09T18:11:17.346Z,5.32
2022-12-09T18:13:43.941Z,4.93
2022-12-09T18:16:11.978Z,4.68
2022-12-09T18:18:39.730Z,9.73
2022-12-09T18:21:12.082Z,6.05
2022-12-09T18:23:41.930Z,5.97
2022-12-09T18:26:10.607Z,5.28
2022-12-09T18:28:38.229Z,5.60
2022-12-09T18:31:10.208Z,5.93
2022-12-09T18:33:38.531Z,6.50
2022-12-09T18:36:07.560Z,7.38
2022-12-09T18:38:34.995Z,9.85
2022-12-09T18:41:02.831Z,12.52
2022-12-09T18:43:31.649Z,8.60
2022-12-09T18:46:06.703Z,9.68
2022-12-09T18:48:33.621Z,8.93
2022-12-09T18:51:00.270Z,13.82
2022-12-09T18:53:27.609Z,13.05
2022-12-09T18:55:54.274Z,9.88
2022-12-09T18:58:31.504Z,9.15
2022-12-09T19:01:21.514Z,9.55
2022-12-09T19:03:48.292Z,9.07
2022-12-09T19:06:30.280Z,9.70
2022-12-09T19:08:59.490Z,10.10
2022-12-09T19:11:29.422Z,12.70
2022-12-09T19:13:56.856Z,13.68
2022-12-09T19:16:25.789Z,11.10
2022-12-09T19:18:56.177Z,9.60
2022-12-09T19:21:24.454Z,10.25
2022-12-09T19:23:51.777Z,9.88
2022-12-09T19:26:29.412Z,10.23
2022-12-09T19:28:59.708Z,9.77
2022-12-09T19:31:38.436Z,12.38
2022-12-09T19:36:36.046Z,9.38
2022-12-09T19:39:05.855Z,10.85
2022-12-09T19:41:32.687Z,10.52
2022-12-09T19:44:01.008Z,10.68
2022-12-09T19:46:28.527Z,10.43
2022-12-09T19:48:56.188Z,10.65
2022-12-09T19:51:24.085Z,11.80
2022-12-09T19:53:53.567Z,11.65
2022-12-09T19:56:20.760Z,10.43
2022-12-09T19:58:48.534Z,14.65
2022-12-09T20:01:29.517Z,11.82
2022-12-09T20:04:19.197Z,12.07
2022-12-09T20:06:51.942Z,10.70
2022-12-09T20:09:24.383Z,10.57
2022-12-09T20:14:20.641Z,11.13
2022-12-09T20:16:47.334Z,11.07
2022-12-09T20:19:14.028Z,12.63
2022-12-09T20:21:41.124Z,11.68
2022-12-09T20:24:09.603Z,10.52
2022-12-09T20:26:37.912Z,11.10
2022-12-09T20:29:07.993Z,10.65
2022-12-09T20:31:36.966Z,11.27
2022-12-09T20:34:06.603Z,11.07
2022-12-09T20:36:36.069Z,11.05
2022-12-09T20:39:06.786Z,11.23
2022-12-09T20:41:33.440Z,11.88
2022-12-09T20:44:00.589Z,10.98
2022-12-09T20:46:30.143Z,10.77
2022-12-09T20:48:57.996Z,10.55
2022-12-09T20:51:34.815Z,10.43
2022-12-09T20:54:01.442Z,10.48
2022-12-09T20:56:29.470Z,10.20
2022-12-09T20:58:56.906Z,10.63
2022-12-09T21:01:29.246Z,11.63
2022-12-09T21:03:57.478Z,10.80
2022-12-09T21:06:27.090Z,9.50
2022-12-09T21:08:53.934Z,9.40
2022-12-09T21:11:23.177Z,8.82
2022-12-09T21:13:57.819Z,9.77
2022-12-09T21:16:29.982Z,9.63
2022-12-09T21:18:59.915Z,8.25
2022-12-09T21:21:30.269Z,9.23
2022-12-09T21:23:56.994Z,10.18
2022-12-09T21:26:25.065Z,9.35
2022-12-09T21:28:53.243Z,9.38
2022-12-09T21:31:24.042Z,9.57
2022-12-09T21:33:52.442Z,10.20
2022-12-09T21:36:21.931Z,10.57
2022-12-09T21:38:48.536Z,8.18
2022-12-09T21:41:18.712Z,11.65
2022-12-09T21:43:46.413Z,10.40
2022-12-09T21:46:19.320Z,10.55
2022-12-09T21:48:52.153Z,10.40
2022-12-09T21:51:19.527Z,9.85
2022-12-09T21:53:46.943Z,12.07
2022-12-09T21:56:16.009Z,10.38
2022-12-09T21:58:44.342Z,10.27
2022-12-09T22:01:20.084Z,10.20
2022-12-09T22:03:47.960Z,10.40
2022-12-09T22:06:16.048Z,12.77
2022-12-09T22:08:43.369Z,10.60
2022-12-09T22:11:14.450Z,13.73
2022-12-09T22:13:41.504Z,11.68
2022-12-09T22:16:10.077Z,10.52
2022-12-09T22:18:36.803Z,10.23
2022-12-09T22:21:25.649Z,10.05
2022-12-09T22:23:57.278Z,10.90
2022-12-09T22:26:24.400Z,10.82
2022-12-09T22:28:52.134Z,11.20
2022-12-09T22:31:22.798Z,11.38
2022-12-09T22:33:52.058Z,12.02
2022-12-09T22:36:22.642Z,10.80
2022-12-09T22:38:52.440Z,10.27
2022-12-09T22:41:25.729Z,10.27
2022-12-09T22:43:54.451Z,10.88
2022-12-09T22:46:24.096Z,10.45
2022-12-09T22:48:51.207Z,11.38
2022-12-09T22:51:23.444Z,9.98
2022-12-09T22:53:53.227Z,11.63
2022-12-09T22:56:20.257Z,11.00
2022-12-09T22:58:47.638Z,11.45
2022-12-09T23:01:25.791Z,10.43
2022-12-09T23:03:53.830Z,11.77
2022-12-09T23:06:20.456Z,10.48
2022-12-09T23:08:47.716Z,10.93
2022-12-09T23:11:17.117Z,11.20
2022-12-09T23:13:44.493Z,10.27
2022-12-09T23:16:14.797Z,10.27
2022-12-09T23:18:41.799Z,10.18
2022-12-09T23:21:23.498Z,10.55
2022-12-09T23:23:55.215Z,9.23
2022-12-09T23:26:26.125Z,9.07
2022-12-09T23:28:54.656Z,10.90
2022-12-09T23:31:24.094Z,9.15
2022-12-09T23:33:51.957Z,11.30
2022-12-09T23:36:21.687Z,9.52
2022-12-09T23:38:48.512Z,8.07
2022-12-09T23:41:17.861Z,9.05
2022-12-09T23:43:46.112Z,8.93
2022-12-09T23:46:16.224Z,9.35
2022-12-09T23:48:44.821Z,8.50
2022-12-09T23:51:17.803Z,8.05
2022-12-09T23:53:46.696Z,9.13
2022-12-09T23:56:15.277Z,9.80
2022-12-09T23:58:43.000Z,7.85
